Florence Regional Airport Florence US
ICAO: KFLO
IATA: FLO
Category: Medium
Scheduled Services: Yes

Elevation: 146 ft
TransAlt. 18000 ft.

Airport Communications:
APP DEP:118.6
ATIS:123.625
CTAF:125.1
GND/CLNC DEL:121.9
ANDERSON RDO:122.6
TWR:125.1
UNICOM:122.95

KFLO Zoom In..

Runways:

(A) RW 01 length 6000 ft width 150 ft
---- / hdg 6

(B) RW 09 length 6502 ft width 150 ft
ILS 109.10 / hdg 89

(C) RW 19 length 6000 ft width 150 ft
---- / hdg 186

(D) RW 27 length 6502 ft width 150 ft
---- / hdg 269

Location; KFLO
Day. 30 / Time. 19.53 Zulu
* Altimeter: 29.94
* Temperature: 30° c. 86°f.
* Wind from: 320° Speed 05 kn.
Dewpoint: 21° c.
Visibility: 10 Statute Miles.
Clouds: Broken 3100 ft.
Clouds: Broken 4100 ft.

KFLO 301953Z 32005KT 10SM BKN031 BKN041 30/21 A2994 RMK AO2 SLP136 T03000211


Wind From 320°
Speed 05 kn.

 
 
jpsmedia worldairports.se 2020   terms of use